Weather Data

Pearl Creek Farm: 8878 N Farm Road 75, Walnut Grove MO 65770

<== Previous Day (Monday 14 Sep 2015) | Next Day (Wednesday 16 Sep 2015) ==>

Summary Precipitation Data For Tuesday 15 September 2015

ElementValueUnits
Precipitation0"
Notes(none)
SourcePearl Creek Farm

Summary Temperature Data For Tuesday 15 September 2015

ElementValueUnits
High Temperature82 oF
Low Temperature61 oF
Average Temperature70 oF
High Humidity81 %
Low Humidity56 %
Average Humidity71 %
SourcePearl Creek Farm

Detail Temperature Data For Tuesday 15 September 2015

Date / TimeTemp (F)RH (%)Dew Pt (F)Report Date / TimeSource
2015-09-15 00:00:00 66 77 58.4 2015-11-18 13:17:03 Pearl Creek Farm
2015-09-15 00:30:00 66 76 58.2 2015-11-18 13:17:03 Pearl Creek Farm
2015-09-15 01:00:00 66 76 58.0 2015-11-18 13:17:03 Pearl Creek Farm
2015-09-15 01:30:00 65 77 57.4 2015-11-18 13:17:03 Pearl Creek Farm
2015-09-15 02:00:00 65 76 57.3 2015-11-18 13:17:03 Pearl Creek Farm
2015-09-15 02:30:00 64 78 56.8 2015-11-18 13:17:03 Pearl Creek Farm
2015-09-15 03:00:00 64 77 56.7 2015-11-18 13:17:03 Pearl Creek Farm
2015-09-15 03:30:00 64 77 56.7 2015-11-18 13:17:03 Pearl Creek Farm
2015-09-15 04:00:00 64 77 56.7 2015-11-18 13:17:03 Pearl Creek Farm
2015-09-15 04:30:00 64 76 56.3 2015-11-18 13:17:03 Pearl Creek Farm
2015-09-15 05:00:00 63 77 55.5 2015-11-18 13:17:03 Pearl Creek Farm
2015-09-15 05:30:00 63 78 55.9 2015-11-18 13:17:03 Pearl Creek Farm
2015-09-15 06:00:00 62 79 55.4 2015-11-18 13:17:03 Pearl Creek Farm
2015-09-15 06:30:00 61 80 54.8 2015-11-18 13:17:03 Pearl Creek Farm
2015-09-15 07:00:00 61 80 54.6 2015-11-18 13:17:03 Pearl Creek Farm
2015-09-15 07:30:00 61 80 54.8 2015-11-18 13:17:03 Pearl Creek Farm
2015-09-15 08:00:00 62 81 55.9 2015-11-18 13:17:03 Pearl Creek Farm
2015-09-15 08:30:00 63 79 56.2 2015-11-18 13:17:03 Pearl Creek Farm
2015-09-15 09:00:00 64 80 57.5 2015-11-18 13:17:03 Pearl Creek Farm
2015-09-15 09:30:00 66 75 57.9 2015-11-18 13:17:03 Pearl Creek Farm
2015-09-15 10:00:00 68 73 59.0 2015-11-18 13:17:03 Pearl Creek Farm
2015-09-15 10:30:00 71 69 60.1 2015-11-18 13:17:03 Pearl Creek Farm
2015-09-15 11:00:00 73 65 60.3 2015-11-18 13:17:03 Pearl Creek Farm
2015-09-15 11:30:00 74 63 60.4 2015-11-18 13:17:03 Pearl Creek Farm
2015-09-15 12:00:00 76 61 61.6 2015-11-18 13:17:03 Pearl Creek Farm
2015-09-15 12:30:00 77 62 62.8 2015-11-18 13:17:03 Pearl Creek Farm
2015-09-15 13:00:00 78 58 61.8 2015-11-18 13:17:03 Pearl Creek Farm
2015-09-15 13:30:00 79 57 62.5 2015-11-18 13:17:03 Pearl Creek Farm
2015-09-15 14:00:00 80 57 63.1 2015-11-18 13:17:03 Pearl Creek Farm
2015-09-15 14:30:00 81 56 63.6 2015-11-18 13:17:03 Pearl Creek Farm
2015-09-15 15:00:00 82 56 64.8 2015-11-18 13:17:03 Pearl Creek Farm
2015-09-15 15:30:00 82 57 65.0 2015-11-18 13:17:03 Pearl Creek Farm
2015-09-15 16:00:00 82 57 65.3 2015-11-18 13:17:03 Pearl Creek Farm
2015-09-15 16:30:00 82 58 65.8 2015-11-18 13:17:03 Pearl Creek Farm
2015-09-15 17:00:00 81 57 64.1 2015-11-18 13:17:03 Pearl Creek Farm
2015-09-15 17:30:00 80 60 64.6 2015-11-18 13:17:03 Pearl Creek Farm
2015-09-15 18:00:00 79 61 64.4 2015-11-18 13:17:03 Pearl Creek Farm
2015-09-15 18:30:00 77 65 64.3 2015-11-18 13:17:03 Pearl Creek Farm
2015-09-15 19:00:00 76 68 64.7 2015-11-18 13:17:03 Pearl Creek Farm
2015-09-15 19:30:00 73 69 62.2 2015-11-18 13:17:03 Pearl Creek Farm
2015-09-15 20:00:00 71 72 61.3 2015-11-18 13:17:03 Pearl Creek Farm
2015-09-15 20:30:00 70 74 61.1 2015-11-18 13:17:03 Pearl Creek Farm
2015-09-15 21:00:00 69 77 61.5 2015-11-18 13:17:03 Pearl Creek Farm
2015-09-15 21:30:00 68 77 60.3 2015-11-18 13:17:03 Pearl Creek Farm
2015-09-15 22:00:00 68 77 60.3 2015-11-18 13:17:03 Pearl Creek Farm
2015-09-15 22:30:00 68 77 60.5 2015-11-18 13:17:03 Pearl Creek Farm
2015-09-15 23:00:00 68 78 60.7 2015-11-18 13:17:03 Pearl Creek Farm
2015-09-15 23:30:00 68 78 60.7 2015-11-18 13:17:03 Pearl Creek Farm

A total of 48 rows are displayed.